Terminal Aerodrome Forecast
Issued by NWS Pocatello, ID

Home | Current Version | Previous Version | Text Only | Print | Product List | Glossary On
Versions: 1 2 3 4 5 6 7 8 9 10 11 12 13 14 15 16 17
656
FTUS45 KPIH 122320
TAFIDA
TAF
KIDA 122320Z 1300/1324 01007KT P6SM FEW050 SCT120 SCT160
     FM130600 36007KT P6SM SCT050 BKN120 BKN160
     FM130800 36007KT 6SM BR SCT004 BKN100 BKN160
     FM131300 20010KT 4SM BR BKN004 BKN100
     FM131700 23015G25KT 6SM BR SCT004 BKN025 BKN110=

USA.gov is the U.S. government's official web portal to all federal, state and local government web resources and services.